createdAt,value
2022-10-10T00:01:49.446Z,3.60
2022-10-10T00:04:53.181Z,3.97
2022-10-10T00:07:55.501Z,3.92
2022-10-10T00:10:57.477Z,4.10
2022-10-10T00:13:59.579Z,4.10
2022-10-10T00:17:01.552Z,4.57
2022-10-10T00:20:04.082Z,4.30
2022-10-10T00:23:06.067Z,4.43
2022-10-10T00:26:09.278Z,4.10
2022-10-10T00:29:11.946Z,3.57
2022-10-10T00:32:13.976Z,3.58
2022-10-10T00:35:16.001Z,3.62
2022-10-10T00:38:18.416Z,4.25
2022-10-10T00:41:22.307Z,3.93
2022-10-10T00:44:24.392Z,3.70
2022-10-10T00:47:26.373Z,3.92
2022-10-10T00:50:29.967Z,3.60
2022-10-10T00:53:54.131Z,3.90
2022-10-10T00:57:00.804Z,4.20
2022-10-10T01:00:04.760Z,3.77
2022-10-10T01:03:06.926Z,3.33
2022-10-10T01:06:09.343Z,3.83
2022-10-10T01:09:11.278Z,3.37
2022-10-10T01:12:18.092Z,3.70
2022-10-10T01:15:42.645Z,3.50
2022-10-10T01:18:47.257Z,3.42
2022-10-10T01:22:04.313Z,3.60
2022-10-10T01:25:27.726Z,3.20
2022-10-10T01:29:07.508Z,3.30
2022-10-10T01:32:26.697Z,3.40
2022-10-10T01:35:47.053Z,3.58
2022-10-10T01:39:10.086Z,3.70
2022-10-10T01:42:25.136Z,3.42
2022-10-10T01:45:28.454Z,3.37
2022-10-10T01:48:32.443Z,3.73
2022-10-10T01:51:55.038Z,3.40
2022-10-10T01:55:20.042Z,3.40
2022-10-10T01:58:48.007Z,3.30
2022-10-10T02:02:16.248Z,3.83
2022-10-10T02:05:33.363Z,3.43
2022-10-10T02:08:43.650Z,3.85
2022-10-10T02:11:45.640Z,4.05
2022-10-10T02:14:51.454Z,3.60
2022-10-10T02:17:56.381Z,3.70
2022-10-10T02:20:58.752Z,3.50
2022-10-10T02:24:06.876Z,3.95
2022-10-10T02:27:16.066Z,3.75
2022-10-10T02:30:18.900Z,3.60
2022-10-10T02:33:27.139Z,3.53
2022-10-10T02:36:31.371Z,3.87
2022-10-10T02:39:40.810Z,3.97
2022-10-10T02:42:45.421Z,3.67
2022-10-10T02:45:47.422Z,3.55
2022-10-10T02:48:49.370Z,3.77
2022-10-10T02:51:51.422Z,3.73
2022-10-10T02:54:53.473Z,3.75
2022-10-10T02:57:55.445Z,3.40
2022-10-10T03:00:57.414Z,3.47
2022-10-10T03:03:59.416Z,4.07
2022-10-10T03:07:01.305Z,3.50
2022-10-10T03:10:06.241Z,3.55
2022-10-10T03:13:08.587Z,2.75
2022-10-10T03:16:11.351Z,3.58
2022-10-10T03:19:13.332Z,3.07
2022-10-10T03:22:15.290Z,3.63
2022-10-10T03:25:17.324Z,3.45
2022-10-10T03:28:19.436Z,3.37
2022-10-10T03:31:22.202Z,3.97
2022-10-10T03:34:24.217Z,3.40
2022-10-10T03:37:26.230Z,3.43
2022-10-10T03:40:29.342Z,3.10
2022-10-10T03:43:31.983Z,3.65
2022-10-10T03:46:33.923Z,3.30
2022-10-10T03:49:35.814Z,3.13
2022-10-10T03:52:37.876Z,3.67
2022-10-10T03:55:41.288Z,3.33
2022-10-10T03:58:43.519Z,16.00
2022-10-10T04:01:45.524Z,3.22
2022-10-10T04:04:47.551Z,3.40
2022-10-10T04:07:49.528Z,3.60
2022-10-10T04:10:53.504Z,3.15
2022-10-10T04:13:55.489Z,2.75
2022-10-10T04:17:00.959Z,3.37
2022-10-10T04:20:05.493Z,3.00
2022-10-10T04:23:07.804Z,3.20
2022-10-10T04:26:09.795Z,2.85
2022-10-10T04:29:11.802Z,3.08
2022-10-10T04:32:14.007Z,3.30
2022-10-10T04:35:15.969Z,2.87
2022-10-10T04:38:19.910Z,2.80
2022-10-10T04:41:21.861Z,3.17
2022-10-10T04:44:23.959Z,2.70
2022-10-10T04:47:25.927Z,2.80
2022-10-10T04:50:28.043Z,2.97
2022-10-10T04:53:30.040Z,3.10
2022-10-10T04:56:32.029Z,2.87
2022-10-10T04:59:34.438Z,2.70
2022-10-10T05:02:36.397Z,3.35
2022-10-10T05:05:39.907Z,2.77
2022-10-10T05:08:41.968Z,2.57
2022-10-10T05:11:44.015Z,4.32
2022-10-10T05:14:48.227Z,2.70
2022-10-10T05:17:50.467Z,2.60
2022-10-10T05:20:52.442Z,2.53
2022-10-10T05:23:54.825Z,2.83
2022-10-10T05:26:56.800Z,2.62
2022-10-10T05:29:58.841Z,2.50
2022-10-10T05:33:00.808Z,2.55
2022-10-10T05:36:11.970Z,2.70
2022-10-10T05:39:13.964Z,2.40
2022-10-10T05:42:16.100Z,2.40
2022-10-10T05:45:18.155Z,2.60
2022-10-10T05:48:20.208Z,2.45
2022-10-10T05:51:22.245Z,3.30
2022-10-10T05:54:24.286Z,3.10
2022-10-10T05:57:26.359Z,2.47
2022-10-10T06:00:29.164Z,2.60
2022-10-10T06:03:31.339Z,2.60
2022-10-10T06:06:33.395Z,2.30
2022-10-10T06:09:35.451Z,2.57
2022-10-10T06:12:37.489Z,2.58
2022-10-10T06:15:39.499Z,2.62
2022-10-10T06:18:41.491Z,2.42
2022-10-10T06:21:43.473Z,2.37
2022-10-10T06:24:47.494Z,2.43
2022-10-10T06:27:52.893Z,2.50
2022-10-10T06:30:54.951Z,2.40
2022-10-10T06:33:56.987Z,2.80
2022-10-10T06:36:59.043Z,2.23
2022-10-10T06:40:01.041Z,2.63
2022-10-10T06:43:04.742Z,2.10
2022-10-10T06:46:06.793Z,2.05
2022-10-10T06:49:08.961Z,2.45
2022-10-10T06:52:10.931Z,2.53
2022-10-10T06:55:12.857Z,2.40
2022-10-10T06:58:15.014Z,5.82
2022-10-10T07:01:21.806Z,6.32
2022-10-10T07:04:23.869Z,2.33
2022-10-10T07:07:25.870Z,2.20
2022-10-10T07:10:27.887Z,2.33
2022-10-10T07:13:29.937Z,1.98
2022-10-10T07:16:32.483Z,2.10
2022-10-10T07:19:36.854Z,2.40
2022-10-10T07:22:38.945Z,2.28
2022-10-10T07:25:42.833Z,2.20
2022-10-10T07:28:45.458Z,2.75
2022-10-10T07:31:47.517Z,2.80
2022-10-10T07:34:51.056Z,3.40
2022-10-10T07:37:56.338Z,2.83
2022-10-10T07:40:58.435Z,3.53
2022-10-10T07:44:00.483Z,2.80
2022-10-10T07:47:02.448Z,3.20
2022-10-10T07:50:06.300Z,2.28
2022-10-10T07:53:09.525Z,2.60
2022-10-10T07:56:12.146Z,1.97
2022-10-10T07:59:14.346Z,1.95
2022-10-10T08:02:16.508Z,3.10
2022-10-10T08:05:18.576Z,4.65
2022-10-10T08:08:20.602Z,2.40
2022-10-10T08:11:22.782Z,2.27
2022-10-10T08:14:24.766Z,2.00
2022-10-10T08:17:26.864Z,2.25
2022-10-10T08:20:28.814Z,2.30
2022-10-10T08:23:30.874Z,2.10
2022-10-10T08:26:32.989Z,2.23
2022-10-10T08:29:35.010Z,2.28
2022-10-10T08:32:36.958Z,2.30
2022-10-10T08:35:40.123Z,2.40
2022-10-10T08:38:42.355Z,2.30
2022-10-10T08:41:58.171Z,2.30
2022-10-10T08:45:06.642Z,2.20
2022-10-10T08:48:14.833Z,2.47
2022-10-10T08:51:29.714Z,2.05
2022-10-10T08:54:33.826Z,2.40
2022-10-10T08:57:49.918Z,2.30
2022-10-10T09:00:56.498Z,2.85
2022-10-10T09:04:01.960Z,2.72
2022-10-10T09:07:19.215Z,2.28
2022-10-10T09:10:52.706Z,2.50
2022-10-10T09:14:20.082Z,2.23
2022-10-10T09:17:53.995Z,2.30
2022-10-10T09:20:58.941Z,2.60
2022-10-10T09:24:22.633Z,3.00
2022-10-10T09:27:31.969Z,3.45
2022-10-10T09:30:40.893Z,3.37
2022-10-10T09:33:52.265Z,3.10
2022-10-10T09:36:59.134Z,3.25
2022-10-10T09:40:11.716Z,2.78
2022-10-10T09:43:21.156Z,3.62
2022-10-10T09:46:23.512Z,3.97
2022-10-10T09:49:25.925Z,4.57
2022-10-10T09:52:30.910Z,4.68
2022-10-10T09:55:36.040Z,5.22
2022-10-10T09:58:47.338Z,5.15
2022-10-10T10:02:02.903Z,3.67
2022-10-10T10:05:18.937Z,4.00
2022-10-10T10:08:26.368Z,3.70
2022-10-10T10:11:35.131Z,3.70
2022-10-10T10:14:38.702Z,3.70
2022-10-10T10:17:40.646Z,2.80
2022-10-10T10:20:48.190Z,3.10
2022-10-10T10:23:50.129Z,3.55
2022-10-10T10:26:52.130Z,4.37
2022-10-10T10:29:57.104Z,4.43
2022-10-10T10:33:27.048Z,4.10
2022-10-10T10:36:38.320Z,3.90
2022-10-10T10:40:13.834Z,4.28
2022-10-10T10:43:28.025Z,4.72
2022-10-10T10:47:04.239Z,4.40
2022-10-10T10:50:30.790Z,5.67
2022-10-10T10:53:57.711Z,5.47
2022-10-10T10:57:32.198Z,5.40
2022-10-10T11:01:24.349Z,3.70
2022-10-10T11:05:23.047Z,4.20
2022-10-10T11:08:07.356Z,3.50
2022-10-10T11:11:19.395Z,3.90
2022-10-10T11:14:52.498Z,3.42
2022-10-10T11:18:10.569Z,3.80
2022-10-10T11:21:19.494Z,3.95
2022-10-10T11:24:21.450Z,4.03
2022-10-10T11:27:46.082Z,4.40
2022-10-10T11:30:54.601Z,4.22
2022-10-10T11:34:05.927Z,3.90
2022-10-10T11:37:16.853Z,3.33
2022-10-10T11:40:28.953Z,3.17
2022-10-10T11:43:40.794Z,3.40
2022-10-10T11:46:50.924Z,3.42
2022-10-10T11:49:58.589Z,3.60
2022-10-10T11:53:12.660Z,3.62
2022-10-10T11:56:17.716Z,3.10
2022-10-10T11:59:53.807Z,3.25
2022-10-10T12:02:58.355Z,3.33
2022-10-10T12:06:11.343Z,3.58
2022-10-10T12:09:32.779Z,3.25
2022-10-10T12:12:40.324Z,3.73
2022-10-10T12:15:46.591Z,2.97
2022-10-10T12:18:54.478Z,3.08
2022-10-10T12:22:05.709Z,2.87
2022-10-10T12:25:20.725Z,3.28
2022-10-10T12:28:54.893Z,2.93
2022-10-10T12:32:13.580Z,2.90
2022-10-10T12:35:35.891Z,3.30
2022-10-10T12:38:37.931Z,3.12
2022-10-10T12:41:47.253Z,3.10
2022-10-10T12:44:49.661Z,2.90
2022-10-10T12:48:07.325Z,3.03
2022-10-10T12:51:22.011Z,2.90
2022-10-10T12:54:45.027Z,3.35
2022-10-10T12:57:49.411Z,3.28
2022-10-10T13:00:52.933Z,3.87
2022-10-10T13:03:56.327Z,3.33
2022-10-10T13:07:02.030Z,2.70
2022-10-10T13:10:19.384Z,3.20
2022-10-10T13:13:21.449Z,2.95
2022-10-10T13:16:29.810Z,3.13
2022-10-10T13:19:41.651Z,3.08
2022-10-10T13:22:47.186Z,3.70
2022-10-10T13:25:49.518Z,3.67
2022-10-10T13:28:53.590Z,3.65
2022-10-10T13:32:06.246Z,4.47
2022-10-10T13:35:27.047Z,4.53
2022-10-10T13:38:29.026Z,4.12
2022-10-10T13:41:31.292Z,4.10
2022-10-10T13:44:47.935Z,5.60
2022-10-10T13:47:52.261Z,5.47
2022-10-10T13:51:07.467Z,4.72
2022-10-10T13:54:37.440Z,4.70
2022-10-10T13:57:40.887Z,3.90
2022-10-10T14:00:43.354Z,4.60
2022-10-10T14:03:47.735Z,4.87
2022-10-10T14:06:52.697Z,3.87
2022-10-10T14:09:59.809Z,4.30
2022-10-10T14:13:01.957Z,3.85
2022-10-10T14:16:25.423Z,3.87
2022-10-10T14:19:27.866Z,4.10
2022-10-10T14:22:29.886Z,4.57
2022-10-10T14:25:32.328Z,4.53
2022-10-10T14:28:38.834Z,4.72
2022-10-10T14:31:42.300Z,4.05
2022-10-10T14:34:44.883Z,4.87
2022-10-10T14:37:46.835Z,5.32
2022-10-10T14:40:50.184Z,5.15
2022-10-10T14:43:52.230Z,4.40
2022-10-10T14:46:54.260Z,4.72
2022-10-10T14:49:58.069Z,4.60
2022-10-10T14:53:00.095Z,4.62
2022-10-10T14:56:02.028Z,4.55
2022-10-10T14:59:04.043Z,4.65
2022-10-10T15:02:06.435Z,4.28
2022-10-10T15:05:08.514Z,4.33
2022-10-10T15:08:15.802Z,4.43
2022-10-10T15:11:18.196Z,4.12
2022-10-10T15:14:20.134Z,4.70
2022-10-10T15:17:22.177Z,4.82
2022-10-10T15:20:30.898Z,5.00
2022-10-10T15:23:33.278Z,5.00
2022-10-10T15:26:35.297Z,5.12
2022-10-10T15:29:39.073Z,5.07
2022-10-10T15:32:41.800Z,5.12
2022-10-10T15:36:08.123Z,5.00
2022-10-10T15:39:05.897Z,4.78
2022-10-10T15:42:14.022Z,4.75
2022-10-10T15:45:31.224Z,4.68
2022-10-10T15:48:39.365Z,5.20
2022-10-10T15:51:46.391Z,4.03
2022-10-10T15:54:49.374Z,4.35
2022-10-10T15:57:51.374Z,4.95
2022-10-10T16:00:54.404Z,5.45
2022-10-10T16:03:57.071Z,5.90
2022-10-10T16:07:23.231Z,5.97
2022-10-10T16:10:21.079Z,6.32
2022-10-10T16:13:23.612Z,6.40
2022-10-10T16:16:25.779Z,8.27
2022-10-10T16:19:28.023Z,9.60
2022-10-10T16:22:29.958Z,12.17
2022-10-10T16:25:31.907Z,11.93
2022-10-10T16:28:34.776Z,13.75
2022-10-10T16:31:39.215Z,11.90
2022-10-10T16:34:41.241Z,11.52
2022-10-10T16:37:43.359Z,11.10
2022-10-10T16:40:45.376Z,15.68
2022-10-10T16:43:48.078Z,32.08
2022-10-10T16:46:50.477Z,32.58
2022-10-10T16:49:52.442Z,23.55
2022-10-10T16:52:54.429Z,16.00
2022-10-10T16:56:00.933Z,15.05
2022-10-10T16:59:03.490Z,10.88
2022-10-10T17:02:05.531Z,18.15
2022-10-10T17:05:08.080Z,13.95
2022-10-10T17:08:10.517Z,18.30
2022-10-10T17:11:14.621Z,16.65
2022-10-10T17:14:16.700Z,18.73
2022-10-10T17:17:19.514Z,14.93
2022-10-10T17:20:22.079Z,18.95
2022-10-10T17:23:23.999Z,34.13
2022-10-10T17:26:28.007Z,32.95
2022-10-10T17:29:30.023Z,20.50
2022-10-10T17:32:32.268Z,18.25
2022-10-10T17:35:42.559Z,25.48
2022-10-10T17:38:45.614Z,26.50
2022-10-10T17:41:49.356Z,25.98
2022-10-10T17:44:56.135Z,33.78
2022-10-10T17:47:58.296Z,18.75
2022-10-10T17:51:00.343Z,17.98
2022-10-10T17:54:03.478Z,17.00
2022-10-10T17:57:05.588Z,20.10
2022-10-10T18:00:08.234Z,20.92
2022-10-10T18:03:12.431Z,22.30
2022-10-10T18:06:18.390Z,18.95
2022-10-10T18:09:20.896Z,20.23
2022-10-10T18:12:23.266Z,23.98
2022-10-10T18:15:25.249Z,21.52
2022-10-10T18:18:27.497Z,24.10
2022-10-10T18:21:29.685Z,24.77
2022-10-10T18:24:32.278Z,27.30
2022-10-10T18:27:34.754Z,25.30
2022-10-10T18:30:40.582Z,23.25
2022-10-10T18:33:45.467Z,23.98
2022-10-10T18:36:47.562Z,24.15
2022-10-10T18:39:49.670Z,24.03
2022-10-10T18:42:51.967Z,22.33
2022-10-10T18:45:59.825Z,21.77
2022-10-10T18:49:03.357Z,22.27
2022-10-10T18:52:07.886Z,19.98
2022-10-10T18:55:17.402Z,20.50
2022-10-10T18:58:19.788Z,20.90
2022-10-10T19:01:24.895Z,19.90
2022-10-10T19:04:27.624Z,21.65
2022-10-10T19:07:29.759Z,22.48
2022-10-10T19:10:31.976Z,24.93
2022-10-10T19:13:34.742Z,26.62
2022-10-10T19:16:38.022Z,25.90
2022-10-10T19:19:40.106Z,24.77
2022-10-10T19:22:42.162Z,27.00
2022-10-10T19:25:48.739Z,27.10
2022-10-10T19:28:53.978Z,26.75
2022-10-10T19:31:56.317Z,25.80
2022-10-10T19:34:58.991Z,24.30
2022-10-10T19:38:01.029Z,23.70
2022-10-10T19:41:07.180Z,20.67
2022-10-10T19:44:09.286Z,20.58
2022-10-10T19:47:11.265Z,20.70
2022-10-10T19:50:13.272Z,21.08
2022-10-10T19:53:18.031Z,21.87
2022-10-10T19:56:24.608Z,20.77
2022-10-10T19:59:26.761Z,20.67
2022-10-10T20:02:28.716Z,22.08
2022-10-10T20:05:30.858Z,19.05
2022-10-10T20:08:33.508Z,18.50
2022-10-10T20:11:35.660Z,18.43
2022-10-10T20:14:37.735Z,18.92
2022-10-10T20:17:39.862Z,19.35
2022-10-10T20:20:44.743Z,17.75
2022-10-10T20:23:49.140Z,17.13
2022-10-10T20:26:51.271Z,15.93
2022-10-10T20:29:53.303Z,16.12
2022-10-10T20:32:55.282Z,15.45
2022-10-10T20:36:01.224Z,15.85
2022-10-10T20:39:06.880Z,16.17
2022-10-10T20:42:09.069Z,16.27
2022-10-10T20:45:11.762Z,14.98
2022-10-10T20:48:13.823Z,15.77
2022-10-10T20:51:15.776Z,14.77
2022-10-10T20:54:20.490Z,15.10
2022-10-10T20:57:22.585Z,14.20
2022-10-10T21:00:26.766Z,14.95
2022-10-10T21:03:30.260Z,14.20
2022-10-10T21:06:34.700Z,13.48
2022-10-10T21:09:37.293Z,13.23
2022-10-10T21:12:39.690Z,14.80
2022-10-10T21:15:43.593Z,14.45
2022-10-10T21:18:57.096Z,15.25
2022-10-10T21:22:06.719Z,14.02
2022-10-10T21:25:09.046Z,14.70
2022-10-10T21:28:11.191Z,13.27
2022-10-10T21:31:15.672Z,13.50
2022-10-10T21:34:19.072Z,12.63
2022-10-10T21:37:21.163Z,12.65
2022-10-10T21:40:23.155Z,12.70
2022-10-10T21:43:25.364Z,12.07
2022-10-10T21:46:34.981Z,11.15
2022-10-10T21:49:38.388Z,11.00
2022-10-10T21:52:40.467Z,10.82
2022-10-10T21:55:42.490Z,10.73
2022-10-10T21:58:47.857Z,10.87
2022-10-10T22:01:49.876Z,10.45
2022-10-10T22:04:52.023Z,11.32
2022-10-10T22:07:54.006Z,11.20
2022-10-10T22:11:00.479Z,10.40
2022-10-10T22:14:03.313Z,11.97
2022-10-10T22:17:05.274Z,11.05
2022-10-10T22:20:09.760Z,11.48
2022-10-10T22:23:11.866Z,10.93
2022-10-10T22:26:16.909Z,11.60
2022-10-10T22:29:18.903Z,10.60
2022-10-10T22:32:21.153Z,11.32
2022-10-10T22:35:23.220Z,10.23
2022-10-10T22:38:25.227Z,11.15
2022-10-10T22:41:27.213Z,11.00
2022-10-10T22:44:29.174Z,9.80
2022-10-10T22:47:31.159Z,9.13
2022-10-10T22:50:33.743Z,8.45
2022-10-10T22:53:36.177Z,8.27
2022-10-10T22:56:38.179Z,8.57
2022-10-10T22:59:40.191Z,7.60
2022-10-10T23:02:42.145Z,7.68
2022-10-10T23:05:45.479Z,7.70
2022-10-10T23:08:47.558Z,6.95
2022-10-10T23:11:49.518Z,7.77
2022-10-10T23:14:51.538Z,7.63
2022-10-10T23:17:53.543Z,7.00
2022-10-10T23:20:56.102Z,7.80
2022-10-10T23:23:58.153Z,7.60
2022-10-10T23:27:00.099Z,8.80
2022-10-10T23:30:02.028Z,8.23
2022-10-10T23:33:04.123Z,8.32
2022-10-10T23:36:12.189Z,8.70
2022-10-10T23:39:14.715Z,9.75
2022-10-10T23:42:17.070Z,9.87
2022-10-10T23:45:19.783Z,10.37
2022-10-10T23:48:21.950Z,8.77
2022-10-10T23:51:23.970Z,9.65
2022-10-10T23:54:26.005Z,10.80
2022-10-10T23:57:28.154Z,10.17
